Terminal Aerodrome Forecast
Issued by NWS

Home | Current Version | Previous Version | Text Only | Print | Product List | Glossary Off
Versions: 1 2 3 4 5 6 7 8 9 10 11 12 13 14 15 16 17 18 19

000
FTUS43 KGRB 261100
TAFCWA
TAF
KCWA 261127Z 2612/2712 29005KT P6SM SCT120 BKN200
     FM261600 29009G14KT P6SM SCT040 BKN200
     FM270200 31003KT P6SM BKN150
     FM270500 35003KT P6SM SCT070 BKN120=

USA.gov is the U.S. government's official web portal to all federal, state and local government web resources and services.